Aérodrome :
LOGIN :

S'inscrire | Disclaimer

   EN    FR    IT 

 










Légende :    VFR   VFR Marginal   IFR   IFR Intensif   IFR Très Intensif
Visi : 
Plafond : 
>= 8 km
>= 3000ft
5 à 8 km
1000 à 3000 ft
1500m à 5 km
500 à 1000 ft
800 à 1500m
200 à 500 ft
< 800m
< 200 ft
Symboles :   Orages  Brouillard  Fortes neiges  Fortes précipitations  Vent > 20 kt
SIGMETs :   Divers  Orages  Givrage  Turbulence  Onde Orograph.  Cendres Volcan.






- Altitude de l'aérodrome : 885 ft
- Code IATA : BAS


LFSB - Bale-Mulhouse

DERNIER METAR :
  • 181900Z AUTO VRB02KT CAVOK 23/19 Q1012 NOSIG

METARs EXPIRÉS :
  • 181830Z AUTO VRB01KT CAVOK 25/18 Q1012 NOSIG
  • 181730Z AUTO 32008KT 280V340 CAVOK 27/17 Q1012 NOSIG
  • 181700Z AUTO 32008KT CAVOK 28/16 Q1012 NOSIG
  • 181630Z AUTO 31008KT 270V340 CAVOK 28/17 Q1012 NOSIG
  • 181600Z AUTO 28003KT 230V320 CAVOK 29/18 Q1012 TEMPO FEW060CB
  • 181530Z AUTO 26005KT 230V300 CAVOK 29/18 Q1012 TEMPO FEW060CB
  • 181500Z AUTO VRB02KT CAVOK 30/18 Q1012 TEMPO FEW060CB
  • 181430Z AUTO VRB02KT CAVOK 29/18 Q1013 TEMPO FEW060CB

TAF AMD TAF LFSB
Valide du 18 à 18h jusqu'au 19 à 18h UTC


181805Z 1818/1918 VRB04KT CAVOK
TEMPO 1822/1906 -SHRA FEW070CB BKN080
PROB40
TEMPO 1822/1902 31010KT 4000 TSRA SCT055CB
BECMG 1909/1912 36008KT
PROB40
TEMPO 1912/1918 35010G20KT FEW065CB
Météo : +33 3 89 90 31 11



MET'MAP, la Météo Aéronautique d'un coup d'oeil ! - Copyright ORBIFLY Décembre 2007 - Disclaimer

ORBIFLY MET'MAP TEAM :

Programmation & Développement : Alexandra Zaïnal
Sur une idée originale de : Baudouin d'Aumeries
Soutien technique & logistique : Manuel Goepfert
Assistance : Marc-Olivier Méhu




SOURCES & CREDITS :

   NOAA